createdAt,value
2022-08-12T16:01:53.358Z,100766.12
2022-08-12T16:07:08.750Z,100763.69
2022-08-12T16:12:14.794Z,100767.11
2022-08-12T16:17:17.925Z,100764.48
2022-08-12T16:22:29.225Z,100767.36
2022-08-12T16:27:38.620Z,100767.77
2022-08-12T16:32:41.895Z,100759.96
2022-08-12T16:38:25.159Z,100752.81
2022-08-12T16:43:25.463Z,100751.17
2022-08-12T16:48:33.890Z,100746.30
2022-08-12T16:53:44.437Z,100748.11
2022-08-12T17:11:21.700Z,100746.67
2022-08-12T17:16:24.754Z,100750.77
2022-08-12T17:21:41.224Z,100748.42
2022-08-12T17:26:56.342Z,100740.74
2022-08-12T17:32:02.949Z,100734.48
2022-08-12T17:37:08.476Z,100734.09
2022-08-12T17:42:34.392Z,100736.83
2022-08-12T17:47:36.455Z,100747.38
2022-08-12T17:52:39.715Z,100747.04
2022-08-12T17:57:43.995Z,100751.16
2022-08-12T18:02:49.131Z,100747.00
2022-08-12T18:07:57.838Z,100746.31
2022-08-12T18:13:02.645Z,100742.71
2022-08-12T18:18:16.710Z,100745.73
2022-08-12T18:23:23.627Z,100747.09
2022-08-12T18:28:29.337Z,100753.73
2022-08-12T18:33:43.845Z,100754.13
2022-08-12T18:38:52.760Z,100756.52
2022-08-12T18:44:03.234Z,100755.65
2022-08-12T18:49:18.036Z,100748.07
2022-08-12T18:54:25.918Z,100747.95
2022-08-12T18:59:59.731Z,100752.11
2022-08-12T19:04:53.849Z,100759.58
2022-08-12T19:10:04.280Z,100764.25
2022-08-12T19:15:08.515Z,100763.27
2022-08-12T19:20:14.948Z,100758.48
2022-08-12T19:26:01.241Z,100756.25
2022-08-12T19:31:08.497Z,100755.53
2022-08-12T19:36:24.675Z,100755.08
2022-08-12T19:41:34.433Z,100758.76
2022-08-12T19:46:52.707Z,100759.10
2022-08-12T19:51:56.256Z,100763.07
2022-08-12T19:56:59.987Z,100770.80
2022-08-12T20:02:08.529Z,100774.10
2022-08-12T20:07:24.308Z,100777.86
2022-08-12T20:12:44.783Z,100776.00
2022-08-12T20:18:00.589Z,100783.58
2022-08-12T20:23:08.569Z,100791.60
2022-08-12T20:28:12.298Z,100796.71
2022-08-12T20:33:18.668Z,100797.20
2022-08-12T20:38:27.996Z,100793.37
2022-08-12T20:43:36.166Z,100796.27
2022-08-12T20:48:43.691Z,100795.94
2022-08-12T20:53:53.967Z,100793.81
2022-08-12T20:59:07.329Z,100789.44
2022-08-12T21:04:32.424Z,100796.15
2022-08-12T21:09:41.012Z,100794.97
2022-08-12T21:14:53.433Z,100796.86
2022-08-12T21:20:06.328Z,100797.20
2022-08-12T21:25:17.745Z,100796.90
2022-08-12T21:30:21.354Z,100801.08
2022-08-12T21:35:30.612Z,100790.64
2022-08-12T21:40:51.792Z,100797.89
2022-08-12T21:46:00.715Z,100796.35
2022-08-12T21:51:23.182Z,100792.91
2022-08-12T21:56:34.021Z,100791.59
2022-08-12T22:01:48.667Z,100779.94
2022-08-12T22:06:53.870Z,100775.71
2022-08-12T22:12:21.864Z,100776.36
2022-08-12T22:17:50.092Z,100777.55
2022-08-12T22:22:56.714Z,100774.53
2022-08-12T22:28:24.570Z,100774.13
2022-08-12T22:33:27.955Z,100774.38
2022-08-12T22:38:31.949Z,100772.65
2022-08-12T22:44:00.194Z,100769.95
2022-08-12T22:49:06.560Z,100773.83
2022-08-12T22:54:28.116Z,100769.91
2022-08-12T22:59:55.975Z,100765.38
2022-08-12T23:04:59.417Z,100764.77
2022-08-12T23:10:04.489Z,100755.90
2022-08-12T23:15:08.219Z,100751.20
2022-08-12T23:20:11.591Z,100751.41
2022-08-12T23:25:20.847Z,100746.05
2022-08-12T23:30:32.215Z,100747.16
2022-08-12T23:35:54.038Z,100747.64
2022-08-12T23:41:03.983Z,100747.47
2022-08-12T23:46:09.013Z,100743.58
2022-08-12T23:51:22.915Z,100743.91
2022-08-12T23:56:33.726Z,100740.73
